createdAt,value
2023-01-20T00:01:29.602Z,100057.38
2023-01-20T00:03:57.044Z,100055.63
2023-01-20T00:06:24.399Z,100056.59
2023-01-20T00:08:52.043Z,100059.06
2023-01-20T00:11:19.141Z,100065.31
2023-01-20T00:13:45.751Z,100056.66
2023-01-20T00:16:12.615Z,100065.38
2023-01-20T00:18:39.956Z,100061.00
2023-01-20T00:21:11.234Z,100054.97
2023-01-20T00:23:38.611Z,100057.44
2023-01-20T00:26:06.131Z,100064.38
2023-01-20T00:28:33.164Z,100061.00
2023-01-20T00:31:09.589Z,100073.09
2023-01-20T00:33:36.236Z,100076.50
2023-01-20T00:36:02.809Z,100078.22
2023-01-20T00:38:29.388Z,100081.72
2023-01-20T00:40:56.099Z,100073.28
2023-01-20T00:43:22.897Z,100078.38
2023-01-20T00:45:49.765Z,100088.94
2023-01-20T00:48:16.415Z,100088.97
2023-01-20T00:50:43.270Z,100091.59
2023-01-20T00:53:09.879Z,100091.69
2023-01-20T00:55:36.639Z,100091.66
2023-01-20T00:58:03.252Z,100094.22
2023-01-20T01:00:29.897Z,100102.88
2023-01-20T01:02:56.583Z,100101.09
2023-01-20T01:05:23.344Z,100100.19
2023-01-20T01:07:50.052Z,100113.97
2023-01-20T01:10:16.997Z,100109.69
2023-01-20T01:12:43.856Z,100113.94
2023-01-20T01:15:10.871Z,100108.88
2023-01-20T01:17:38.026Z,100108.03
2023-01-20T01:20:05.124Z,100121.91
2023-01-20T01:22:32.923Z,100121.97
2023-01-20T01:24:59.551Z,100120.25
2023-01-20T01:27:27.710Z,100127.13
2023-01-20T01:29:54.234Z,100123.78
2023-01-20T01:32:20.901Z,100127.19
2023-01-20T01:34:47.521Z,100133.25
2023-01-20T01:37:14.153Z,100134.00
2023-01-20T01:39:40.747Z,100123.59
2023-01-20T01:42:14.381Z,100122.69
2023-01-20T01:44:59.830Z,100138.41
2023-01-20T01:47:26.437Z,100125.31
2023-01-20T01:49:53.004Z,100132.25
2023-01-20T01:52:21.512Z,100135.75
2023-01-20T01:54:49.224Z,100122.69
2023-01-20T01:57:15.841Z,100132.31
2023-01-20T01:59:43.927Z,100144.53
2023-01-20T02:02:13.753Z,100144.56
2023-01-20T02:04:42.873Z,100143.75
2023-01-20T02:07:11.772Z,100139.44
2023-01-20T02:09:38.439Z,100140.34
2023-01-20T02:12:07.744Z,100141.19
2023-01-20T02:14:36.730Z,100137.72
2023-01-20T02:17:08.606Z,100148.06
2023-01-20T02:19:54.052Z,100141.16
2023-01-20T02:22:37.232Z,100154.13
2023-01-20T02:25:03.898Z,100152.38
2023-01-20T02:27:42.428Z,100156.69
2023-01-20T02:30:11.795Z,100153.25
2023-01-20T02:32:50.054Z,100158.44
2023-01-20T02:35:26.534Z,100163.56
2023-01-20T02:38:03.917Z,100172.22
2023-01-20T02:40:32.855Z,100175.66
2023-01-20T02:43:06.097Z,100161.75
2023-01-20T02:45:45.888Z,100173.97
2023-01-20T02:48:25.852Z,100175.66
2023-01-20T02:51:03.993Z,100179.13
2023-01-20T02:53:36.523Z,100180.81
2023-01-20T02:56:04.282Z,100189.56
2023-01-20T02:58:50.873Z,100192.91
2023-01-20T03:01:23.533Z,100182.53
2023-01-20T03:03:52.124Z,100188.59
2023-01-20T03:06:21.595Z,100193.81
2023-01-20T03:08:50.344Z,100200.75
2023-01-20T03:11:16.916Z,100208.63
2023-01-20T03:13:46.569Z,100210.34
2023-01-20T03:16:18.151Z,100217.25
2023-01-20T03:18:44.913Z,100219.06
2023-01-20T03:21:12.565Z,100218.16
2023-01-20T03:23:43.053Z,100219.06
2023-01-20T03:26:10.828Z,100223.41
2023-01-20T03:28:37.590Z,100221.63
2023-01-20T03:31:24.216Z,100218.19
2023-01-20T03:33:52.562Z,100224.28
2023-01-20T03:36:20.751Z,100229.50
2023-01-20T03:38:48.028Z,100234.66
2023-01-20T03:41:15.538Z,100242.44
2023-01-20T03:43:51.580Z,100236.38
2023-01-20T03:46:29.880Z,100251.97
2023-01-20T03:49:02.605Z,100246.75
2023-01-20T03:51:33.481Z,100247.66
2023-01-20T03:54:02.316Z,100254.59
2023-01-20T03:56:31.985Z,100243.34
2023-01-20T03:59:00.377Z,100250.25
2023-01-20T04:01:47.399Z,100248.56
2023-01-20T04:04:16.262Z,100248.50
2023-01-20T04:06:43.808Z,100256.28
2023-01-20T04:09:12.965Z,100251.94
2023-01-20T04:11:39.724Z,100258.88
2023-01-20T04:14:08.243Z,100261.50
2023-01-20T04:16:35.237Z,100264.97
2023-01-20T04:19:03.311Z,100268.41
2023-01-20T04:21:59.271Z,100273.66
2023-01-20T04:24:28.590Z,100274.50
2023-01-20T04:26:55.267Z,100279.69
2023-01-20T04:29:22.053Z,100291.84
2023-01-20T04:31:48.640Z,100288.38
2023-01-20T04:34:16.053Z,100288.38
2023-01-20T04:36:42.708Z,100293.59
2023-01-20T04:39:09.380Z,100298.75
2023-01-20T04:41:36.044Z,100295.31
2023-01-20T04:44:02.763Z,100303.97
2023-01-20T04:46:29.648Z,100307.41
2023-01-20T04:48:56.267Z,100305.69
2023-01-20T04:51:23.003Z,100305.69
2023-01-20T04:53:49.635Z,100309.16
2023-01-20T04:56:16.215Z,100309.16
2023-01-20T04:58:43.185Z,100310.88
2023-01-20T05:01:09.842Z,100316.94
2023-01-20T05:03:36.571Z,100319.53
2023-01-20T05:06:03.334Z,100328.19
2023-01-20T05:08:30.087Z,100321.28
2023-01-20T05:10:56.689Z,100326.47
2023-01-20T05:13:23.333Z,100335.16
2023-01-20T05:15:50.011Z,100333.41
2023-01-20T05:18:16.604Z,100338.59
2023-01-20T05:20:44.924Z,100343.78
2023-01-20T05:23:11.536Z,100332.56
2023-01-20T05:25:38.062Z,100336.91
2023-01-20T05:28:05.200Z,100338.59
2023-01-20T05:30:31.977Z,100340.34
2023-01-20T05:32:58.675Z,100346.38
2023-01-20T05:35:25.281Z,100345.53
2023-01-20T05:37:55.480Z,100348.13
2023-01-20T05:40:22.395Z,100342.91
2023-01-20T05:42:49.042Z,100359.38
2023-01-20T05:45:15.911Z,100354.16
2023-01-20T05:47:42.720Z,100366.22
2023-01-20T05:50:09.662Z,100364.50
2023-01-20T05:52:36.186Z,100367.88
2023-01-20T05:55:02.814Z,100373.97
2023-01-20T05:57:29.424Z,100379.13
2023-01-20T05:59:56.046Z,100378.31
2023-01-20T06:02:22.799Z,100380.13
2023-01-20T06:04:49.548Z,100385.22
2023-01-20T06:07:16.114Z,100385.31
2023-01-20T06:09:44.909Z,100385.28
2023-01-20T06:12:11.482Z,100377.50
2023-01-20T06:14:38.103Z,100393.06
2023-01-20T06:17:07.128Z,100388.78
2023-01-20T06:19:33.739Z,100387.09
2023-01-20T06:22:00.263Z,100395.75
2023-01-20T06:24:26.833Z,100398.34
2023-01-20T06:26:53.403Z,100390.50
2023-01-20T06:29:20.346Z,100393.94
2023-01-20T06:31:47.232Z,100400.03
2023-01-20T06:34:14.111Z,100404.38
2023-01-20T06:36:40.677Z,100404.34
2023-01-20T06:39:07.340Z,100414.78
2023-01-20T06:41:34.190Z,100410.47
2023-01-20T06:44:00.864Z,100423.44
2023-01-20T06:46:27.561Z,100418.25
2023-01-20T06:49:02.504Z,100421.72
2023-01-20T06:51:30.183Z,100428.69
2023-01-20T06:53:57.256Z,100425.19
2023-01-20T06:56:24.075Z,100425.19
2023-01-20T06:58:50.685Z,100427.81
2023-01-20T07:01:28.864Z,100424.34
2023-01-20T07:03:55.518Z,100426.94
2023-01-20T07:06:27.879Z,100432.13
2023-01-20T07:08:55.066Z,100440.75
2023-01-20T07:11:22.371Z,100446.81
2023-01-20T07:13:49.115Z,100442.47
2023-01-20T07:16:16.152Z,100451.13
2023-01-20T07:18:47.333Z,100450.28
2023-01-20T07:21:17.386Z,100463.31
2023-01-20T07:23:44.383Z,100463.31
2023-01-20T07:26:12.137Z,100464.19
2023-01-20T07:28:39.128Z,100463.31
2023-01-20T07:31:10.433Z,100471.06
2023-01-20T07:33:37.380Z,100477.13
2023-01-20T07:36:04.516Z,100475.44
2023-01-20T07:38:31.129Z,100482.34
2023-01-20T07:40:58.549Z,100489.34
2023-01-20T07:43:27.999Z,100487.63
2023-01-20T07:45:55.939Z,100503.22
2023-01-20T07:48:22.707Z,100504.94
2023-01-20T07:50:49.367Z,100501.50
2023-01-20T07:53:18.783Z,100508.41
2023-01-20T07:55:45.386Z,100511.91
2023-01-20T07:58:12.020Z,100520.56
2023-01-20T08:00:38.673Z,100522.31
2023-01-20T08:03:05.267Z,100519.69
2023-01-20T08:05:32.146Z,100532.69
2023-01-20T08:07:58.679Z,100529.19
2023-01-20T08:10:25.378Z,100537.03
2023-01-20T08:12:54.276Z,100540.50
2023-01-20T08:15:20.868Z,100543.97
2023-01-20T08:17:47.500Z,100557.88
2023-01-20T08:20:14.187Z,100553.56
2023-01-20T08:22:40.831Z,100557.03
2023-01-20T08:25:07.714Z,100572.63
2023-01-20T08:27:34.331Z,100569.19
2023-01-20T08:30:00.910Z,100563.09
2023-01-20T08:32:27.514Z,100570.88
2023-01-20T08:34:55.039Z,100578.69
2023-01-20T08:37:22.176Z,100584.75
2023-01-20T08:39:51.061Z,100579.53
2023-01-20T08:42:18.115Z,100579.53
2023-01-20T08:44:44.718Z,100576.84
2023-01-20T08:47:11.322Z,100591.63
2023-01-20T08:49:37.967Z,100581.19
2023-01-20T08:52:04.517Z,100585.53
2023-01-20T08:54:34.518Z,100576.88
2023-01-20T08:57:03.307Z,100585.56
2023-01-20T08:59:29.945Z,100588.16
2023-01-20T09:01:56.570Z,100592.50
2023-01-20T09:04:23.189Z,100588.09
2023-01-20T09:06:53.912Z,100598.56
2023-01-20T09:09:24.465Z,100596.88
2023-01-20T09:11:51.419Z,100601.25
2023-01-20T09:14:22.213Z,100600.38
2023-01-20T09:16:49.015Z,100602.94
2023-01-20T09:19:15.612Z,100610.75
2023-01-20T09:21:50.279Z,100612.47
2023-01-20T09:24:19.353Z,100617.59
2023-01-20T09:26:47.151Z,100624.56
2023-01-20T09:29:18.365Z,100627.06
2023-01-20T09:31:48.906Z,100633.03
2023-01-20T09:34:19.639Z,100623.38
2023-01-20T09:36:49.429Z,100628.75
2023-01-20T09:39:35.035Z,100629.59
2023-01-20T09:42:23.358Z,100629.66
2023-01-20T09:44:53.828Z,100634.84
2023-01-20T09:47:31.565Z,100634.78
2023-01-20T09:50:35.845Z,100635.59
2023-01-20T09:53:08.293Z,100653.84
2023-01-20T09:55:44.209Z,100643.31
2023-01-20T09:58:29.285Z,100642.44
2023-01-20T10:01:00.488Z,100646.72
2023-01-20T10:03:37.579Z,100654.38
2023-01-20T10:06:10.806Z,100648.03
2023-01-20T10:08:59.618Z,100647.47
2023-01-20T10:11:35.483Z,100658.75
2023-01-20T10:14:21.041Z,100660.13
2023-01-20T10:16:54.763Z,100655.75
2023-01-20T10:19:27.242Z,100655.88
2023-01-20T10:22:16.996Z,100656.75
2023-01-20T10:24:50.082Z,100641.41
2023-01-20T10:27:16.884Z,100652.41
2023-01-20T10:30:05.831Z,100654.03
2023-01-20T10:32:36.763Z,100662.00
2023-01-20T10:35:24.992Z,100654.47
2023-01-20T10:37:52.514Z,100661.34
2023-01-20T10:40:27.571Z,100660.06
2023-01-20T10:42:58.505Z,100668.09
2023-01-20T10:45:36.183Z,100665.13
2023-01-20T10:48:19.826Z,100669.94
2023-01-20T10:51:09.724Z,100667.13
2023-01-20T10:53:47.363Z,100667.25
2023-01-20T10:56:53.314Z,100666.03
2023-01-20T10:59:28.954Z,100669.38
2023-01-20T11:02:14.259Z,100673.28
2023-01-20T11:04:41.408Z,100677.06
2023-01-20T11:07:31.317Z,100687.44
2023-01-20T11:10:00.784Z,100690.94
2023-01-20T11:12:29.811Z,100683.84
2023-01-20T11:14:59.739Z,100687.81
2023-01-20T11:17:26.455Z,100685.00
2023-01-20T11:19:54.283Z,100690.50
2023-01-20T11:22:28.141Z,100689.75
2023-01-20T11:24:56.083Z,100692.66
2023-01-20T11:27:24.977Z,100702.34
2023-01-20T11:29:55.848Z,100697.44
2023-01-20T11:32:33.305Z,100707.03
2023-01-20T11:35:00.685Z,100702.69
2023-01-20T11:37:38.107Z,100706.63
2023-01-20T11:40:22.207Z,100710.19
2023-01-20T11:42:49.631Z,100710.34
2023-01-20T11:45:22.302Z,100708.53
2023-01-20T11:48:03.730Z,100695.22
2023-01-20T11:50:32.428Z,100695.72
2023-01-20T11:53:13.294Z,100709.91
2023-01-20T11:55:45.727Z,100707.41
2023-01-20T11:58:17.272Z,100715.75
2023-01-20T12:00:44.362Z,100723.78
2023-01-20T12:03:10.919Z,100716.34
2023-01-20T12:05:37.544Z,100721.41
2023-01-20T12:08:05.622Z,100724.09
2023-01-20T12:10:37.209Z,100723.00
2023-01-20T12:13:11.540Z,100726.44
2023-01-20T12:15:42.044Z,100728.00
2023-01-20T12:18:22.237Z,100725.94
2023-01-20T12:20:55.980Z,100725.88
2023-01-20T12:23:22.664Z,100727.81
2023-01-20T12:26:00.740Z,100737.69
2023-01-20T12:28:38.609Z,100726.50
2023-01-20T12:31:09.480Z,100731.63
2023-01-20T12:33:38.677Z,100725.31
2023-01-20T12:36:20.519Z,100733.53
2023-01-20T12:39:04.399Z,100734.84
2023-01-20T12:41:43.328Z,100738.50
2023-01-20T12:44:37.160Z,100749.63
2023-01-20T12:47:14.273Z,100751.72
2023-01-20T12:50:01.077Z,100748.53
2023-01-20T12:52:33.755Z,100755.91
2023-01-20T12:55:14.930Z,100758.53
2023-01-20T12:58:01.855Z,100760.91
2023-01-20T13:00:44.377Z,100762.53
2023-01-20T13:03:39.445Z,100764.53
2023-01-20T13:06:19.286Z,100770.16
2023-01-20T13:08:51.345Z,100771.66
2023-01-20T13:11:21.043Z,100777.34
2023-01-20T13:14:06.218Z,100772.81
2023-01-20T13:16:35.325Z,100777.69
2023-01-20T13:19:08.818Z,100782.50
2023-01-20T13:21:35.471Z,100783.78
2023-01-20T13:24:03.276Z,100791.44
2023-01-20T13:26:31.181Z,100793.63
2023-01-20T13:28:59.248Z,100790.66
2023-01-20T13:31:43.396Z,100791.66
2023-01-20T13:34:22.316Z,100791.59
2023-01-20T13:37:04.805Z,100792.47
2023-01-20T13:39:34.946Z,100797.09
2023-01-20T13:42:01.602Z,100786.13
2023-01-20T13:44:35.453Z,100799.47
2023-01-20T13:47:05.053Z,100803.56
2023-01-20T13:49:50.664Z,100808.44
2023-01-20T13:52:36.269Z,100809.34
2023-01-20T13:55:02.977Z,100803.16
2023-01-20T13:57:33.121Z,100816.72
2023-01-20T14:00:01.904Z,100811.50
2023-01-20T14:02:38.293Z,100820.31
2023-01-20T14:05:21.753Z,100825.19
2023-01-20T14:07:48.410Z,100837.78
2023-01-20T14:10:15.343Z,100839.19
2023-01-20T14:12:42.132Z,100840.00
2023-01-20T14:15:22.847Z,100847.38
2023-01-20T14:17:59.884Z,100843.38
2023-01-20T14:20:27.318Z,100842.00
2023-01-20T14:22:53.944Z,100852.34
2023-01-20T14:25:22.267Z,100856.88
2023-01-20T14:27:48.842Z,100857.25
2023-01-20T14:30:23.484Z,100852.28
2023-01-20T14:32:51.293Z,100861.38
2023-01-20T14:35:31.338Z,100858.41
2023-01-20T14:37:58.776Z,100867.97
2023-01-20T14:40:31.545Z,100875.47
2023-01-20T14:43:02.545Z,100876.13
2023-01-20T14:45:31.257Z,100876.47
2023-01-20T14:47:59.103Z,100886.97
2023-01-20T14:50:26.127Z,100885.06
2023-01-20T14:52:52.817Z,100899.97
2023-01-20T14:55:45.881Z,100910.41
2023-01-20T14:58:21.491Z,100903.34
2023-01-20T15:00:51.753Z,100912.47
2023-01-20T15:03:20.570Z,100923.09
2023-01-20T15:06:05.678Z,100928.59
2023-01-20T15:08:32.245Z,100929.19
2023-01-20T15:11:18.507Z,100943.50
2023-01-20T15:13:51.227Z,100937.41
2023-01-20T15:16:24.162Z,100948.19
2023-01-20T15:19:11.320Z,100956.16
2023-01-20T15:21:39.321Z,100958.81
2023-01-20T15:24:24.639Z,100961.56
2023-01-20T15:26:52.907Z,100966.88
2023-01-20T15:29:39.728Z,100978.19
2023-01-20T15:32:10.124Z,100979.06
2023-01-20T15:34:40.636Z,100982.59
2023-01-20T15:37:15.429Z,100996.53
2023-01-20T15:39:44.234Z,100993.06
2023-01-20T15:42:15.432Z,100991.34
2023-01-20T15:44:43.606Z,101004.31
2023-01-20T15:47:21.309Z,101002.44
2023-01-20T15:49:47.956Z,101011.00
2023-01-20T15:52:14.578Z,101006.94
2023-01-20T15:54:44.363Z,101013.88
2023-01-20T15:57:20.468Z,101025.03
2023-01-20T15:59:49.746Z,101026.63
2023-01-20T16:02:17.559Z,101029.16
2023-01-20T16:04:44.463Z,101041.34
2023-01-20T16:07:15.775Z,101038.44
2023-01-20T16:09:42.946Z,101046.31
2023-01-20T16:12:11.278Z,101050.78
2023-01-20T16:14:37.971Z,101051.75
2023-01-20T16:17:10.037Z,101053.50
2023-01-20T16:19:36.744Z,101060.34
2023-01-20T16:22:03.547Z,101069.84
2023-01-20T16:24:30.117Z,101071.56
2023-01-20T16:26:59.051Z,101064.38
2023-01-20T16:29:25.666Z,101074.72
2023-01-20T16:31:52.259Z,101077.78
2023-01-20T16:34:18.864Z,101089.53
2023-01-20T16:36:45.472Z,101087.53
2023-01-20T16:39:12.096Z,101091.41
2023-01-20T16:41:38.890Z,101084.63
2023-01-20T16:44:07.685Z,101094.13
2023-01-20T16:46:34.538Z,101091.06
2023-01-20T16:49:02.090Z,101102.31
2023-01-20T16:51:29.962Z,101101.56
2023-01-20T16:53:57.243Z,101112.72
2023-01-20T16:56:31.002Z,101111.91
2023-01-20T16:58:58.985Z,101118.66
2023-01-20T17:01:26.637Z,101123.97
2023-01-20T17:04:01.089Z,101132.50
2023-01-20T17:06:32.142Z,101130.41
2023-01-20T17:08:59.593Z,101136.53
2023-01-20T17:11:28.726Z,101143.22
2023-01-20T17:13:55.726Z,101152.53
2023-01-20T17:16:23.679Z,101145.56
2023-01-20T17:18:51.084Z,101160.31
2023-01-20T17:21:20.586Z,101152.66
2023-01-20T17:23:55.149Z,101160.75
2023-01-20T17:26:22.950Z,101164.75
2023-01-20T17:28:53.251Z,101167.16
2023-01-20T17:31:19.898Z,101164.47
2023-01-20T17:33:46.645Z,101171.38
2023-01-20T17:36:13.347Z,101188.06
2023-01-20T17:38:40.274Z,101183.28
2023-01-20T17:41:07.704Z,101187.50
2023-01-20T17:43:34.986Z,101187.53
2023-01-20T17:46:01.934Z,101195.97
2023-01-20T17:48:28.501Z,101195.84
2023-01-20T17:50:59.446Z,101201.84
2023-01-20T17:53:26.670Z,101205.25
2023-01-20T17:56:06.714Z,101212.09
2023-01-20T17:58:38.727Z,101214.50
2023-01-20T18:01:09.713Z,101219.47
2023-01-20T18:03:39.691Z,101217.75
2023-01-20T18:06:07.565Z,101222.81
2023-01-20T18:08:34.414Z,101230.91
2023-01-20T18:11:01.834Z,101233.78
2023-01-20T18:13:28.357Z,101238.41
2023-01-20T18:15:54.989Z,101245.31
2023-01-20T18:18:21.637Z,101243.72
2023-01-20T18:20:48.254Z,101244.28
2023-01-20T18:23:14.824Z,101248.34
2023-01-20T18:25:41.485Z,101254.19
2023-01-20T18:28:08.108Z,101256.25
2023-01-20T18:30:34.857Z,101259.31
2023-01-20T18:33:01.478Z,101250.34
2023-01-20T18:35:28.231Z,101254.72
2023-01-20T18:37:54.752Z,101267.44
2023-01-20T18:40:21.417Z,101266.53
2023-01-20T18:42:51.018Z,101274.81
2023-01-20T18:45:17.616Z,101275.63
2023-01-20T18:47:44.349Z,101275.44
2023-01-20T18:50:11.269Z,101279.94
2023-01-20T18:52:38.062Z,101293.38
2023-01-20T18:55:04.952Z,101289.53
2023-01-20T18:57:31.518Z,101298.41
2023-01-20T18:59:58.135Z,101298.56
2023-01-20T19:02:24.868Z,101295.84
2023-01-20T19:04:51.457Z,101307.56
2023-01-20T19:07:18.051Z,101301.00
2023-01-20T19:09:44.695Z,101310.28
2023-01-20T19:12:11.309Z,101309.88
2023-01-20T19:14:37.982Z,101312.19
2023-01-20T19:17:04.647Z,101310.28
2023-01-20T19:19:31.366Z,101319.59
2023-01-20T19:21:57.978Z,101311.59
2023-01-20T19:24:28.977Z,101320.00
2023-01-20T19:26:58.050Z,101327.31
2023-01-20T19:29:28.258Z,101322.63
2023-01-20T19:31:55.993Z,101334.13
2023-01-20T19:34:22.779Z,101332.38
2023-01-20T19:36:50.471Z,101324.28
2023-01-20T19:39:17.107Z,101340.59
2023-01-20T19:41:43.909Z,101335.38
2023-01-20T19:44:13.054Z,101338.81
2023-01-20T19:46:39.850Z,101333.19
2023-01-20T19:49:06.685Z,101343.50
2023-01-20T19:51:33.368Z,101341.19
2023-01-20T19:54:01.471Z,101346.94
2023-01-20T19:56:30.473Z,101342.59
2023-01-20T19:58:57.622Z,101353.03
2023-01-20T20:01:25.880Z,101351.28
2023-01-20T20:03:52.844Z,101352.59
2023-01-20T20:06:27.338Z,101352.44
2023-01-20T20:08:56.280Z,101363.16
2023-01-20T20:11:22.996Z,101361.22
2023-01-20T20:13:49.698Z,101367.44
2023-01-20T20:16:16.321Z,101372.47
2023-01-20T20:18:43.065Z,101380.84
2023-01-20T20:21:09.786Z,101376.09
2023-01-20T20:23:37.677Z,101379.19
2023-01-20T20:26:04.256Z,101382.75
2023-01-20T20:28:32.100Z,101388.88
2023-01-20T20:31:03.852Z,101385.56
2023-01-20T20:33:31.055Z,101395.81
2023-01-20T20:35:57.689Z,101395.19
2023-01-20T20:38:24.350Z,101407.38
2023-01-20T20:41:00.360Z,101412.88
2023-01-20T20:43:28.298Z,101409.88
2023-01-20T20:45:58.767Z,101414.47
2023-01-20T20:48:25.463Z,101411.72
2023-01-20T20:50:53.363Z,101415.53
2023-01-20T20:53:23.279Z,101420.91
2023-01-20T20:55:53.927Z,101424.72
2023-01-20T20:58:20.684Z,101426.69
2023-01-20T21:00:56.819Z,101439.53
2023-01-20T21:03:23.549Z,101437.88
2023-01-20T21:05:52.365Z,101436.44
2023-01-20T21:08:19.573Z,101441.53
2023-01-20T21:10:46.162Z,101432.44
2023-01-20T21:13:12.825Z,101439.25
2023-01-20T21:15:39.468Z,101442.19
2023-01-20T21:18:07.055Z,101438.88
2023-01-20T21:20:33.922Z,101450.75
2023-01-20T21:23:00.892Z,101450.16
2023-01-20T21:25:27.570Z,101449.34
2023-01-20T21:27:54.279Z,101461.91
2023-01-20T21:30:20.997Z,101465.13
2023-01-20T21:32:50.646Z,101465.41
2023-01-20T21:35:17.251Z,101464.00
2023-01-20T21:37:44.170Z,101466.63
2023-01-20T21:40:11.030Z,101470.03
2023-01-20T21:42:38.092Z,101474.69
2023-01-20T21:45:04.901Z,101474.44
2023-01-20T21:47:32.980Z,101480.56
2023-01-20T21:50:18.924Z,101487.78
2023-01-20T21:52:45.822Z,101489.16
2023-01-20T21:55:15.913Z,101497.81
2023-01-20T21:57:43.069Z,101486.53
2023-01-20T22:00:10.409Z,101498.97
2023-01-20T22:02:40.959Z,101498.66
2023-01-20T22:05:07.735Z,101498.56
2023-01-20T22:07:34.922Z,101503.44
2023-01-20T22:10:01.761Z,101510.66
2023-01-20T22:12:36.077Z,101510.66
2023-01-20T22:15:09.189Z,101505.91
2023-01-20T22:17:35.921Z,101502.69
2023-01-20T22:20:02.491Z,101514.19
2023-01-20T22:22:30.045Z,101510.13
2023-01-20T22:24:59.838Z,101518.84
2023-01-20T22:27:26.713Z,101514.97
2023-01-20T22:29:53.294Z,101526.63
2023-01-20T22:32:20.011Z,101529.41
2023-01-20T22:34:48.433Z,101531.84
2023-01-20T22:37:15.248Z,101533.47
2023-01-20T22:39:41.857Z,101536.16
2023-01-20T22:42:08.681Z,101535.25
2023-01-20T22:44:35.273Z,101531.19
2023-01-20T22:47:02.093Z,101546.41
2023-01-20T22:49:29.926Z,101542.34
2023-01-20T22:51:59.115Z,101548.44
2023-01-20T22:54:25.784Z,101555.78
2023-01-20T22:56:52.481Z,101556.69
2023-01-20T22:59:19.039Z,101560.56
2023-01-20T23:01:45.817Z,101563.06
2023-01-20T23:04:12.427Z,101560.88
2023-01-20T23:06:39.499Z,101572.75
2023-01-20T23:09:07.919Z,101568.41
2023-01-20T23:11:36.410Z,101566.56
2023-01-20T23:14:05.571Z,101570.13
2023-01-20T23:16:32.300Z,101567.78
2023-01-20T23:19:01.901Z,101570.03
2023-01-20T23:21:28.532Z,101564.88
2023-01-20T23:23:55.286Z,101567.28
2023-01-20T23:26:26.808Z,101568.69
2023-01-20T23:28:53.994Z,101574.84
2023-01-20T23:31:21.371Z,101573.72
2023-01-20T23:33:52.780Z,101580.75
2023-01-20T23:36:21.581Z,101583.16
2023-01-20T23:38:48.218Z,101584.16
2023-01-20T23:41:15.366Z,101579.16
2023-01-20T23:43:42.221Z,101587.22
2023-01-20T23:46:09.456Z,101590.56
2023-01-20T23:48:36.710Z,101591.97
2023-01-20T23:51:06.747Z,101594.41
2023-01-20T23:53:36.539Z,101597.00
2023-01-20T23:56:04.853Z,101600.47
2023-01-20T23:58:31.835Z,101598.38
